createdAt,value
2022-11-07T00:01:40.951Z,33.95
2022-11-07T00:04:07.914Z,34.33
2022-11-07T00:06:37.615Z,33.58
2022-11-07T00:09:05.044Z,30.27
2022-11-07T00:11:31.935Z,28.23
2022-11-07T00:13:58.802Z,26.88
2022-11-07T00:16:26.914Z,33.75
2022-11-07T00:18:53.745Z,27.10
2022-11-07T00:21:20.837Z,29.42
2022-11-07T00:23:47.693Z,30.55
2022-11-07T00:26:15.243Z,30.15
2022-11-07T00:28:43.546Z,32.42
2022-11-07T00:31:12.832Z,34.45
2022-11-07T00:33:40.732Z,29.30
2022-11-07T00:36:08.416Z,28.73
2022-11-07T00:38:35.281Z,34.53
2022-11-07T00:41:06.420Z,28.80
2022-11-07T00:43:33.809Z,28.92
2022-11-07T00:46:04.909Z,30.92
2022-11-07T00:48:32.905Z,27.25
2022-11-07T00:51:12.614Z,31.25
2022-11-07T00:53:39.747Z,28.90
2022-11-07T00:56:09.373Z,35.85
2022-11-07T00:58:36.977Z,31.35
2022-11-07T01:01:09.420Z,31.50
2022-11-07T01:03:55.536Z,33.35
2022-11-07T01:06:22.547Z,25.58
2022-11-07T01:08:49.732Z,32.17
2022-11-07T01:11:16.558Z,31.52
2022-11-07T01:13:43.453Z,29.35
2022-11-07T01:16:11.366Z,29.30
2022-11-07T01:18:38.441Z,24.52
2022-11-07T01:21:08.858Z,26.70
2022-11-07T01:23:39.057Z,26.92
2022-11-07T01:26:07.541Z,29.45
2022-11-07T01:28:35.342Z,26.55
2022-11-07T01:31:08.321Z,27.58
2022-11-07T01:33:35.795Z,33.75
2022-11-07T01:36:06.373Z,30.35
2022-11-07T01:38:33.351Z,31.52
2022-11-07T01:41:18.770Z,30.63
2022-11-07T01:43:51.754Z,32.58
2022-11-07T01:46:19.221Z,29.67
2022-11-07T01:48:58.838Z,24.77
2022-11-07T01:51:28.499Z,26.38
2022-11-07T01:53:56.741Z,25.92
2022-11-07T01:56:28.533Z,26.67
2022-11-07T01:58:57.827Z,27.02
2022-11-07T02:01:25.370Z,26.73
2022-11-07T02:03:53.433Z,31.65
2022-11-07T02:06:28.007Z,26.75
2022-11-07T02:08:55.257Z,27.58
2022-11-07T02:11:23.666Z,33.75
2022-11-07T02:13:50.585Z,28.10
2022-11-07T02:16:17.476Z,25.15
2022-11-07T02:18:45.758Z,28.52
2022-11-07T02:21:31.449Z,29.88
2022-11-07T02:24:06.641Z,29.17
2022-11-07T02:26:35.933Z,28.42
2022-11-07T02:29:08.171Z,27.83
2022-11-07T02:31:35.237Z,33.30
2022-11-07T02:34:02.061Z,24.50
2022-11-07T02:36:29.009Z,27.35
2022-11-07T02:38:58.870Z,27.38
2022-11-07T02:41:32.614Z,33.00
2022-11-07T02:44:05.148Z,31.92
2022-11-07T02:46:33.025Z,28.92
2022-11-07T02:49:01.322Z,25.50
2022-11-07T02:51:28.873Z,35.10
2022-11-07T02:53:56.044Z,29.70
2022-11-07T02:56:23.558Z,27.00
2022-11-07T02:58:52.619Z,27.17
2022-11-07T03:01:20.107Z,29.85
2022-11-07T03:03:49.935Z,24.83
2022-11-07T03:06:20.032Z,26.08
2022-11-07T03:08:47.358Z,26.73
2022-11-07T03:11:14.891Z,28.00
2022-11-07T03:13:41.758Z,32.10
2022-11-07T03:16:10.605Z,25.50
2022-11-07T03:18:38.697Z,29.20
2022-11-07T03:21:06.501Z,26.92
2022-11-07T03:23:34.962Z,29.33
2022-11-07T03:26:02.751Z,25.45
2022-11-07T03:28:29.776Z,30.65
2022-11-07T03:31:00.929Z,25.63
2022-11-07T03:33:29.194Z,31.35
2022-11-07T03:35:56.077Z,25.40
2022-11-07T03:38:23.021Z,23.88
2022-11-07T03:40:49.875Z,29.13
2022-11-07T03:43:17.260Z,25.88
2022-11-07T03:45:44.320Z,27.88
2022-11-07T03:48:11.131Z,35.00
2022-11-07T03:50:38.057Z,23.13
2022-11-07T03:53:05.031Z,28.63
2022-11-07T03:55:32.894Z,34.90
2022-11-07T03:57:59.745Z,28.15
2022-11-07T04:00:26.668Z,24.33
2022-11-07T04:02:53.618Z,28.13
2022-11-07T04:05:20.550Z,29.52
2022-11-07T04:07:47.425Z,26.88
2022-11-07T04:10:14.359Z,26.58
2022-11-07T04:13:00.109Z,24.42
2022-11-07T04:15:45.580Z,32.70
2022-11-07T04:18:12.550Z,31.95
2022-11-07T04:20:39.443Z,28.40
2022-11-07T04:23:06.286Z,32.60
2022-11-07T04:25:52.031Z,21.50
2022-11-07T04:28:19.060Z,24.55
2022-11-07T04:30:45.968Z,23.50
2022-11-07T04:33:13.588Z,28.25
2022-11-07T04:35:40.662Z,21.95
2022-11-07T04:38:07.404Z,27.25
2022-11-07T04:40:34.331Z,28.98
2022-11-07T04:43:01.362Z,29.15
2022-11-07T04:45:28.368Z,29.52
2022-11-07T04:47:55.359Z,27.55
2022-11-07T04:50:22.324Z,27.23
2022-11-07T04:52:49.345Z,26.30
2022-11-07T04:55:25.316Z,28.42
2022-11-07T04:57:52.550Z,29.50
2022-11-07T05:00:20.408Z,23.48
2022-11-07T05:02:48.077Z,27.02
2022-11-07T05:05:15.660Z,23.80
2022-11-07T05:07:44.109Z,27.17
2022-11-07T05:10:20.650Z,22.38
2022-11-07T05:12:48.633Z,19.00
2022-11-07T05:15:16.892Z,26.23
2022-11-07T05:17:44.574Z,23.45
2022-11-07T05:20:34.177Z,28.05
2022-11-07T05:23:15.907Z,27.52
2022-11-07T05:25:46.205Z,21.67
2022-11-07T05:28:25.679Z,26.08
2022-11-07T05:31:03.127Z,20.77
2022-11-07T05:33:31.054Z,27.25
2022-11-07T05:35:58.239Z,22.98
2022-11-07T05:38:25.145Z,26.05
2022-11-07T05:40:52.184Z,23.15
2022-11-07T05:43:19.240Z,21.85
2022-11-07T05:45:46.060Z,24.13
2022-11-07T05:48:14.362Z,24.48
2022-11-07T05:50:41.933Z,24.77
2022-11-07T05:53:09.275Z,22.33
2022-11-07T05:55:36.381Z,22.73
2022-11-07T05:58:14.883Z,22.10
2022-11-07T06:00:42.425Z,22.30
2022-11-07T06:03:11.127Z,24.98
2022-11-07T06:05:39.538Z,21.08
2022-11-07T06:08:08.032Z,23.05
2022-11-07T06:10:37.034Z,23.30
2022-11-07T10:14:31.713Z,15.23
2022-11-07T10:30:19.133Z,16.90
2022-11-07T10:33:25.257Z,12.00
2022-11-07T10:36:01.366Z,10.90
2022-11-07T10:38:30.687Z,11.50
2022-11-07T10:40:57.993Z,11.85
2022-11-07T10:43:35.125Z,10.02
2022-11-07T10:46:05.028Z,15.82
2022-11-07T10:48:33.503Z,11.30
2022-11-07T10:51:00.914Z,9.60
2022-11-07T10:53:28.931Z,11.65
2022-11-07T10:55:56.957Z,11.90
2022-11-07T10:58:35.969Z,11.15
2022-11-07T11:01:09.401Z,12.10
2022-11-07T11:03:45.814Z,10.82
2022-11-07T11:06:28.781Z,11.32
2022-11-07T11:08:56.289Z,12.23
2022-11-07T11:11:31.092Z,12.30
2022-11-07T11:14:03.524Z,10.93
2022-11-07T11:16:34.360Z,14.15
2022-11-07T11:19:02.771Z,13.52
2022-11-07T11:21:44.966Z,11.57
2022-11-07T11:24:18.192Z,16.60
2022-11-07T11:26:49.155Z,15.63
2022-11-07T11:29:39.876Z,13.55
2022-11-07T11:32:17.070Z,15.23
2022-11-07T11:35:06.101Z,14.63
2022-11-07T11:37:38.833Z,16.92
2022-11-07T11:40:17.019Z,15.75
2022-11-07T11:43:33.131Z,16.02
2022-11-07T11:46:03.197Z,14.88
2022-11-07T11:48:48.473Z,12.25
2022-11-07T11:51:45.990Z,13.15
2022-11-07T11:54:15.957Z,17.42
2022-11-07T11:56:43.138Z,11.32
2022-11-07T11:59:31.652Z,11.70
2022-11-07T12:02:17.337Z,17.08
2022-11-07T12:05:09.058Z,10.30
2022-11-07T12:08:14.776Z,15.45
2022-11-07T12:10:49.470Z,10.13
2022-11-07T12:13:20.553Z,14.35
2022-11-07T12:16:00.226Z,12.25
2022-11-07T12:19:03.987Z,13.82
2022-11-07T12:21:43.472Z,13.75
2022-11-07T12:24:21.852Z,16.58
2022-11-07T12:27:00.984Z,12.10
2022-11-07T12:29:42.291Z,14.82
2022-11-07T12:32:29.830Z,13.07
2022-11-07T12:35:03.120Z,15.18
2022-11-07T12:37:39.335Z,14.95
2022-11-07T12:40:18.387Z,14.90
2022-11-07T12:43:00.025Z,12.02
2022-11-07T12:45:43.428Z,16.25
2022-11-07T12:48:25.062Z,12.02
2022-11-07T12:51:02.515Z,10.73
2022-11-07T12:53:41.750Z,13.20
2022-11-07T12:56:14.313Z,13.60
2022-11-07T13:01:14.181Z,12.95
2022-11-07T13:03:59.951Z,11.70
2022-11-07T13:06:33.945Z,15.85
2022-11-07T13:09:22.764Z,11.77
2022-11-07T13:11:50.170Z,14.25
2022-11-07T13:14:37.130Z,11.40
2022-11-07T13:17:20.212Z,12.35
2022-11-07T13:20:22.428Z,7.78
2022-11-07T13:22:51.302Z,14.45
2022-11-07T13:25:18.496Z,13.27
2022-11-07T13:27:59.918Z,12.00
2022-11-07T13:30:29.836Z,11.88
2022-11-07T13:32:58.909Z,9.82
2022-11-07T13:35:27.588Z,9.23
2022-11-07T13:38:16.581Z,11.70
2022-11-07T13:40:59.009Z,13.80
2022-11-07T13:43:41.109Z,9.65
2022-11-07T13:46:19.801Z,15.23
2022-11-07T13:49:19.241Z,12.40
2022-11-07T13:51:52.222Z,11.93
2022-11-07T13:55:09.714Z,14.18
2022-11-07T13:57:53.853Z,13.02
2022-11-07T14:00:21.557Z,15.35
2022-11-07T18:04:18.876Z,16.20
2022-11-07T18:06:45.429Z,17.48
2022-11-07T18:09:15.924Z,13.90
2022-11-07T18:11:44.370Z,18.08
2022-11-07T18:14:14.417Z,17.85
2022-11-07T18:16:42.343Z,14.70
2022-11-07T18:19:10.344Z,20.13
2022-11-07T18:21:37.832Z,21.00
2022-11-07T18:24:05.630Z,13.85
2022-11-07T18:26:34.037Z,20.92
2022-11-07T18:29:04.976Z,21.85
2022-11-07T18:31:32.221Z,17.33
2022-11-07T18:34:02.259Z,16.27
2022-11-07T18:36:30.910Z,16.60
2022-11-07T18:39:12.815Z,16.25
2022-11-07T18:41:40.310Z,20.38
2022-11-07T18:44:07.966Z,15.88
2022-11-07T18:46:36.334Z,16.13
2022-11-07T18:49:05.422Z,18.05
2022-11-07T18:51:33.564Z,20.33
2022-11-07T18:54:03.098Z,16.80
2022-11-07T18:56:30.466Z,18.52
2022-11-07T18:58:58.084Z,15.20
2022-11-07T19:01:28.493Z,18.77
2022-11-07T19:03:57.748Z,15.98
2022-11-07T19:06:26.749Z,15.75
2022-11-07T19:08:54.231Z,21.15
2022-11-07T19:11:29.278Z,17.00
2022-11-07T19:14:01.173Z,15.40
2022-11-07T19:16:28.814Z,15.70
2022-11-07T19:18:55.906Z,16.02
2022-11-07T19:21:23.676Z,18.10
2022-11-07T19:23:51.821Z,16.25
2022-11-07T19:26:21.842Z,15.00
2022-11-07T19:28:48.934Z,14.50
2022-11-07T19:31:16.621Z,18.13
2022-11-07T19:33:44.170Z,16.15
2022-11-07T19:36:16.978Z,12.30
2022-11-07T19:41:12.477Z,19.25
2022-11-07T19:43:40.071Z,13.95
2022-11-07T19:46:13.573Z,11.27
2022-11-07T19:48:40.492Z,14.07
2022-11-07T19:51:25.100Z,10.93
2022-11-07T19:54:00.386Z,20.30
2022-11-07T19:56:30.645Z,12.70
2022-11-07T19:58:59.487Z,16.42
2022-11-07T20:01:29.302Z,13.25
2022-11-07T20:03:57.274Z,14.80
2022-11-07T20:06:32.747Z,13.90
2022-11-07T20:09:01.541Z,15.68
2022-11-07T20:11:28.438Z,15.52
2022-11-07T20:14:00.242Z,13.75
2022-11-07T20:16:30.323Z,16.92
2022-11-07T20:18:57.715Z,13.32
2022-11-07T20:21:25.713Z,16.95
2022-11-07T20:23:53.841Z,16.83
2022-11-07T20:26:24.698Z,22.77
2022-11-07T20:28:52.585Z,14.13
2022-11-07T20:31:25.540Z,16.73
2022-11-07T20:33:53.274Z,18.23
2022-11-07T20:36:20.768Z,18.05
2022-11-07T20:38:48.150Z,19.75
2022-11-07T20:41:15.413Z,18.95
2022-11-07T20:43:43.785Z,21.02
2022-11-07T20:46:15.304Z,16.85
2022-11-07T20:48:44.407Z,17.33
2022-11-07T20:51:14.375Z,15.05
2022-11-07T20:53:46.730Z,21.50
2022-11-07T20:56:15.710Z,17.92
2022-11-07T20:58:43.654Z,14.77
2022-11-07T21:01:17.507Z,16.85
2022-11-07T21:03:45.022Z,18.08
2022-11-07T21:06:12.422Z,21.85
2022-11-07T21:08:44.774Z,19.02
2022-11-07T21:11:13.522Z,18.55
2022-11-07T21:13:43.069Z,23.20
2022-11-07T21:16:11.464Z,20.73
2022-11-07T21:18:39.024Z,15.52
2022-11-07T21:21:16.534Z,25.85
2022-11-07T21:23:43.721Z,23.17
2022-11-07T21:26:16.076Z,18.67
2022-11-07T21:28:43.473Z,18.48
2022-11-07T21:31:13.507Z,17.35
2022-11-07T21:33:42.285Z,21.40
2022-11-07T21:36:15.488Z,18.80
2022-11-07T21:38:42.953Z,16.45
2022-11-07T21:41:11.334Z,17.02
2022-11-07T21:43:39.047Z,16.42
2022-11-07T21:46:20.525Z,18.63
2022-11-07T21:48:48.513Z,14.43
2022-11-07T21:51:18.452Z,25.85
2022-11-07T21:53:46.309Z,16.10
2022-11-07T21:56:17.321Z,16.60
2022-11-07T21:58:45.149Z,23.05
2022-11-07T22:01:12.263Z,21.65
2022-11-07T22:06:26.378Z,21.38
2022-11-07T22:08:54.175Z,21.55
2022-11-07T22:11:21.474Z,22.73
2022-11-07T22:13:48.604Z,24.08
2022-11-07T22:16:18.242Z,18.90
2022-11-07T22:18:46.130Z,18.27
2022-11-07T22:21:21.114Z,20.58
2022-11-07T22:23:49.107Z,17.30
2022-11-07T22:26:24.302Z,16.38
2022-11-07T22:28:51.919Z,17.70
2022-11-07T22:31:22.949Z,24.42
2022-11-07T22:33:51.216Z,18.10
2022-11-07T22:36:18.799Z,20.80
2022-11-07T22:38:46.182Z,27.80
2022-11-07T22:41:19.163Z,21.30
2022-11-07T22:43:46.907Z,22.52
2022-11-07T22:46:16.703Z,21.13
2022-11-07T22:48:45.651Z,21.02
2022-11-07T22:51:18.257Z,19.10
2022-11-07T22:53:45.299Z,20.00
2022-11-07T22:56:19.762Z,22.27
2022-11-07T22:58:47.672Z,23.30
2022-11-07T23:01:21.571Z,16.83
2022-11-07T23:03:49.406Z,23.60
2022-11-07T23:06:17.635Z,17.15
2022-11-07T23:08:44.931Z,20.25
2022-11-07T23:14:10.214Z,11.50
2022-11-07T23:16:47.939Z,16.77
2022-11-07T23:19:17.700Z,23.90
2022-11-07T23:21:44.793Z,16.27
2022-11-07T23:24:11.709Z,22.95
2022-11-07T23:26:39.384Z,21.95
2022-11-07T23:29:12.627Z,17.55
2022-11-07T23:31:41.305Z,13.00
2022-11-07T23:34:08.470Z,19.80
2022-11-07T23:36:36.267Z,16.40
2022-11-07T23:39:05.384Z,25.08
2022-11-07T23:41:32.619Z,20.75
2022-11-07T23:43:59.872Z,14.50
2022-11-07T23:46:45.290Z,22.15
2022-11-07T23:49:31.123Z,21.27
2022-11-07T23:51:58.026Z,17.73
2022-11-07T23:54:43.652Z,14.80
2022-11-07T23:57:10.852Z,16.80
2022-11-07T23:59:56.338Z,20.35
